createdAt,value
2024-03-26T00:00:24.458Z,36.71
2024-03-26T00:01:27.696Z,36.72
2024-03-26T00:02:36.945Z,36.72
2024-03-26T00:03:40.020Z,36.73
2024-03-26T00:04:43.248Z,36.7
2024-03-26T00:05:46.440Z,36.74
2024-03-26T00:06:49.688Z,36.71
2024-03-26T00:07:52.963Z,36.76
2024-03-26T00:08:58.092Z,36.77
2024-03-26T00:10:01.223Z,36.72
2024-03-26T00:11:04.431Z,36.75
2024-03-26T00:12:07.612Z,36.76
2024-03-26T00:13:10.894Z,36.72
2024-03-26T00:14:14.065Z,36.73
2024-03-26T00:15:17.305Z,36.74
2024-03-26T00:16:20.550Z,36.69
2024-03-26T00:17:23.689Z,36.75
2024-03-26T00:18:26.894Z,36.76
2024-03-26T00:19:30.146Z,36.78
2024-03-26T00:20:33.415Z,36.78
2024-03-26T00:21:36.584Z,36.78
2024-03-26T00:22:39.850Z,36.79
2024-03-26T00:23:43.123Z,36.77
2024-03-26T00:24:48.481Z,36.76
2024-03-26T00:25:51.650Z,36.72
2024-03-26T00:26:54.710Z,36.72
2024-03-26T00:27:57.911Z,36.77
2024-03-26T00:29:01.200Z,36.77
2024-03-26T00:30:05.913Z,36.71
2024-03-26T00:31:09.130Z,36.78
2024-03-26T00:32:12.290Z,36.72
2024-03-26T00:33:16.476Z,36.72
2024-03-26T00:34:19.673Z,36.71
2024-03-26T00:35:24.377Z,36.67
2024-03-26T00:36:27.608Z,36.72
2024-03-26T00:37:30.836Z,36.73
2024-03-26T00:38:34.099Z,36.72
2024-03-26T00:39:37.288Z,36.71
2024-03-26T00:40:40.469Z,36.65
2024-03-26T00:41:43.728Z,36.72
2024-03-26T00:42:47.033Z,36.78
2024-03-26T00:43:50.275Z,36.78
2024-03-26T00:44:53.430Z,36.79
2024-03-26T00:45:56.760Z,36.72
2024-03-26T00:46:59.957Z,36.72
2024-03-26T00:48:03.276Z,36.76
2024-03-26T00:49:06.587Z,36.76
2024-03-26T00:50:09.847Z,36.78
2024-03-26T00:51:13.047Z,36.75
2024-03-26T00:52:16.302Z,36.75
2024-03-26T00:53:19.575Z,36.76
2024-03-26T00:54:27.657Z,36.7
2024-03-26T00:55:30.866Z,36.69
2024-03-26T00:56:34.141Z,36.65
2024-03-26T00:57:37.315Z,36.68
2024-03-26T00:58:40.498Z,36.66
2024-03-26T00:59:45.850Z,36.73
2024-03-26T01:00:49.122Z,36.71
2024-03-26T01:01:52.265Z,36.67
2024-03-26T01:02:55.477Z,36.67
2024-03-26T01:03:58.608Z,36.72
2024-03-26T01:05:01.867Z,36.77
2024-03-26T01:06:05.127Z,36.73
2024-03-26T01:07:08.389Z,36.78
2024-03-26T01:08:12.520Z,36.73
2024-03-26T01:09:15.637Z,36.76
2024-03-26T01:10:18.874Z,36.72
2024-03-26T01:11:23.631Z,36.74
2024-03-26T01:12:26.831Z,36.73
2024-03-26T01:13:30.028Z,36.74
2024-03-26T01:14:33.259Z,36.72
2024-03-26T01:15:36.514Z,36.72
2024-03-26T01:16:39.738Z,36.76
2024-03-26T01:17:43.000Z,36.73
2024-03-26T01:18:46.290Z,36.8
2024-03-26T01:19:49.552Z,36.78
2024-03-26T01:20:52.776Z,36.68
2024-03-26T01:21:57.959Z,36.73
2024-03-26T01:23:01.200Z,36.77
2024-03-26T01:24:04.472Z,36.7
2024-03-26T01:25:07.735Z,36.72
2024-03-26T01:26:12.457Z,36.72
2024-03-26T01:27:15.604Z,36.76
2024-03-26T01:28:18.811Z,36.73
2024-03-26T01:29:23.519Z,36.72
2024-03-26T01:30:26.707Z,36.73
2024-03-26T01:31:29.945Z,36.67
2024-03-26T01:32:33.363Z,36.72
2024-03-26T01:33:36.788Z,36.73
2024-03-26T01:34:40.090Z,36.64
2024-03-26T01:35:43.344Z,36.68
2024-03-26T01:36:46.563Z,36.71
2024-03-26T01:37:49.821Z,36.67
2024-03-26T01:38:52.954Z,36.75
2024-03-26T01:39:56.022Z,36.72
2024-03-26T01:40:59.228Z,36.71
2024-03-26T01:42:04.472Z,36.67
2024-03-26T01:43:07.706Z,36.66
2024-03-26T01:44:10.932Z,36.63
2024-03-26T01:45:14.206Z,36.67
2024-03-26T01:46:17.402Z,36.67
2024-03-26T01:47:22.701Z,36.67
2024-03-26T01:48:25.923Z,36.58
2024-03-26T01:49:29.139Z,36.61
2024-03-26T01:50:32.424Z,36.63
2024-03-26T01:51:35.729Z,36.61
2024-03-26T01:52:38.988Z,36.72
2024-03-26T01:53:42.217Z,36.68
2024-03-26T01:54:45.479Z,36.68
2024-03-26T01:55:48.692Z,36.64
2024-03-26T01:56:51.935Z,36.68
2024-03-26T01:57:57.061Z,36.68
2024-03-26T01:59:00.246Z,36.68
2024-03-26T02:00:03.470Z,36.65
2024-03-26T02:01:06.734Z,36.68
2024-03-26T02:02:09.953Z,36.75
2024-03-26T02:03:13.176Z,36.7
2024-03-26T02:04:16.438Z,36.75
2024-03-26T02:05:19.644Z,36.76
2024-03-26T02:06:22.904Z,36.66
2024-03-26T02:07:26.104Z,36.7
2024-03-26T02:08:29.324Z,36.62
2024-03-26T02:09:32.582Z,36.63
2024-03-26T02:10:35.769Z,36.67
2024-03-26T02:11:39.006Z,36.68
2024-03-26T02:12:44.261Z,36.69
2024-03-26T02:13:47.438Z,36.65
2024-03-26T02:14:50.576Z,36.68
2024-03-26T02:15:53.688Z,36.7
2024-03-26T02:16:56.861Z,36.73
2024-03-26T02:18:00.087Z,36.65
2024-03-26T02:19:03.278Z,36.77
2024-03-26T02:20:06.559Z,36.68
2024-03-26T02:21:09.787Z,36.68
2024-03-26T02:22:13.003Z,36.71
2024-03-26T02:23:18.285Z,36.68
2024-03-26T02:24:21.448Z,36.67
2024-03-26T02:25:24.632Z,36.65
2024-03-26T02:26:27.908Z,36.6
2024-03-26T02:27:33.143Z,36.67
2024-03-26T02:28:36.303Z,36.67
2024-03-26T02:29:39.608Z,36.61
2024-03-26T02:30:42.882Z,36.51
2024-03-26T02:31:46.065Z,36.55
2024-03-26T02:32:49.321Z,36.56
2024-03-26T02:33:52.405Z,36.58
2024-03-26T02:34:58.015Z,36.61
2024-03-26T02:36:01.131Z,36.57
2024-03-26T02:37:04.381Z,36.55
2024-03-26T02:38:07.616Z,36.56
2024-03-26T02:39:10.806Z,36.61
2024-03-26T02:40:13.959Z,36.58
2024-03-26T02:41:17.205Z,36.54
2024-03-26T02:42:20.384Z,36.57
2024-03-26T02:43:25.604Z,36.57
2024-03-26T02:44:28.787Z,36.58
2024-03-26T02:45:32.016Z,36.54
2024-03-26T02:46:35.272Z,36.63
2024-03-26T02:47:40.465Z,36.6
2024-03-26T02:48:43.695Z,36.58
2024-03-26T02:49:48.388Z,36.54
2024-03-26T02:50:51.566Z,36.56
2024-03-26T02:51:54.683Z,36.61
2024-03-26T02:52:57.911Z,36.66
2024-03-26T02:54:01.363Z,36.57
2024-03-26T02:55:04.627Z,36.53
2024-03-26T02:56:07.822Z,36.51
2024-03-26T02:57:11.003Z,36.54
2024-03-26T02:58:14.142Z,36.58
2024-03-26T02:59:17.353Z,36.59
2024-03-26T03:00:20.548Z,36.67
2024-03-26T03:01:25.802Z,36.58
2024-03-26T03:02:28.907Z,36.6
2024-03-26T03:03:32.273Z,36.49
2024-03-26T03:04:37.539Z,36.49
2024-03-26T03:05:40.664Z,36.47
2024-03-26T03:06:43.894Z,36.47
2024-03-26T03:07:47.111Z,36.48
2024-03-26T03:08:50.356Z,36.52
2024-03-26T03:09:53.608Z,36.53
2024-03-26T03:10:56.843Z,36.52
2024-03-26T03:12:00.144Z,36.48
2024-03-26T03:13:03.379Z,36.52
2024-03-26T03:14:06.615Z,36.49
2024-03-26T03:15:09.896Z,36.53
2024-03-26T03:16:13.027Z,36.55
2024-03-26T03:17:16.290Z,36.51
2024-03-26T03:18:19.434Z,36.49
2024-03-26T03:19:22.656Z,36.53
2024-03-26T03:20:25.886Z,36.58
2024-03-26T03:21:29.184Z,36.59
2024-03-26T03:22:32.362Z,36.54
2024-03-26T03:23:35.539Z,36.54
2024-03-26T03:24:38.710Z,36.63
2024-03-26T03:25:41.951Z,36.51
2024-03-26T03:26:45.153Z,36.55
2024-03-26T03:27:48.370Z,36.58
2024-03-26T03:28:51.625Z,36.57
2024-03-26T03:29:54.848Z,36.51
2024-03-26T03:30:58.069Z,36.64
2024-03-26T03:32:01.362Z,36.52
2024-03-26T03:33:04.598Z,36.56
2024-03-26T03:34:07.793Z,36.47
2024-03-26T03:35:12.957Z,36.44
2024-03-26T03:36:16.193Z,36.42
2024-03-26T03:37:19.415Z,36.4
2024-03-26T03:38:22.690Z,36.44
2024-03-26T03:39:25.924Z,36.54
2024-03-26T03:40:29.174Z,36.41
2024-03-26T03:41:32.495Z,36.46
2024-03-26T03:42:35.696Z,36.58
2024-03-26T03:43:41.023Z,36.52
2024-03-26T03:44:44.263Z,36.4
2024-03-26T03:45:47.473Z,36.45
2024-03-26T03:46:50.696Z,36.43
2024-03-26T03:47:53.820Z,36.49
2024-03-26T03:48:57.059Z,36.51
2024-03-26T03:50:02.344Z,36.55
2024-03-26T03:51:05.519Z,36.57
2024-03-26T03:52:08.696Z,36.47
2024-03-26T03:53:11.881Z,36.48
2024-03-26T03:54:15.109Z,36.47
2024-03-26T03:55:18.317Z,36.36
2024-03-26T03:56:21.494Z,36.44
2024-03-26T03:57:24.673Z,36.54
2024-03-26T03:58:27.909Z,36.53
2024-03-26T03:59:31.161Z,36.43
2024-03-26T04:00:34.396Z,36.44
2024-03-26T04:01:37.605Z,36.56
2024-03-26T04:02:42.839Z,36.5
2024-03-26T04:03:46.032Z,36.56
2024-03-26T04:04:49.226Z,36.46
2024-03-26T04:05:52.345Z,36.4
2024-03-26T04:06:55.509Z,36.48
2024-03-26T04:07:58.800Z,36.44
2024-03-26T04:09:02.030Z,36.43
2024-03-26T04:10:05.311Z,36.48
2024-03-26T04:11:08.592Z,36.51
2024-03-26T04:12:11.749Z,36.57
2024-03-26T04:13:14.987Z,36.51
2024-03-26T04:14:19.700Z,36.54
2024-03-26T04:15:22.911Z,36.47
2024-03-26T04:16:26.150Z,36.56
2024-03-26T04:17:35.353Z,36.53
2024-03-26T04:18:38.454Z,36.43
2024-03-26T04:19:41.650Z,36.46
2024-03-26T04:20:44.984Z,36.51
2024-03-26T04:21:48.269Z,36.49
2024-03-26T04:22:51.460Z,36.43
2024-03-26T04:23:54.566Z,36.45
2024-03-26T04:24:57.800Z,36.45
2024-03-26T04:26:03.055Z,36.52
2024-03-26T04:27:07.804Z,36.4
2024-03-26T04:28:10.867Z,36.42
2024-03-26T04:29:14.071Z,36.44
2024-03-26T04:30:17.285Z,36.4
2024-03-26T04:31:20.450Z,36.46
2024-03-26T04:32:23.660Z,36.42
2024-03-26T04:33:26.885Z,36.49
2024-03-26T04:34:30.096Z,36.53
2024-03-26T04:35:34.804Z,36.52
2024-03-26T04:36:38.037Z,36.41
2024-03-26T04:37:41.256Z,36.43
2024-03-26T04:38:44.536Z,36.38
2024-03-26T04:39:47.744Z,36.42
2024-03-26T04:40:51.980Z,36.48
2024-03-26T04:41:55.096Z,36.42
2024-03-26T04:42:58.262Z,36.41
2024-03-26T04:44:01.627Z,36.55
2024-03-26T04:45:04.922Z,36.47
2024-03-26T04:46:08.152Z,36.4
2024-03-26T04:47:11.318Z,36.46
2024-03-26T04:48:14.511Z,36.44
2024-03-26T04:49:17.728Z,36.45
2024-03-26T04:50:20.994Z,36.5
2024-03-26T04:51:24.244Z,36.41
2024-03-26T04:52:27.424Z,36.51
2024-03-26T04:53:30.664Z,36.46
2024-03-26T04:54:33.980Z,36.54
2024-03-26T04:55:38.785Z,36.55
2024-03-26T04:56:42.007Z,36.51
2024-03-26T04:57:47.240Z,36.51
2024-03-26T04:58:50.423Z,36.52
2024-03-26T04:59:53.560Z,36.52
2024-03-26T05:00:58.271Z,36.47
2024-03-26T05:02:01.510Z,36.53
2024-03-26T05:03:04.650Z,36.42
2024-03-26T05:04:07.866Z,36.41
2024-03-26T05:05:10.998Z,36.36
2024-03-26T05:06:16.134Z,36.49
2024-03-26T05:07:19.391Z,36.33
2024-03-26T05:08:22.635Z,36.47
2024-03-26T05:09:25.810Z,36.47
2024-03-26T05:10:29.030Z,36.51
2024-03-26T05:11:32.238Z,36.54
2024-03-26T05:12:35.440Z,36.44
2024-03-26T05:13:38.632Z,36.52
2024-03-26T05:14:41.849Z,36.51
2024-03-26T05:15:45.032Z,36.43
2024-03-26T05:16:48.402Z,36.5
2024-03-26T05:17:51.686Z,36.51
2024-03-26T05:18:54.859Z,36.49
2024-03-26T05:19:58.064Z,36.45
2024-03-26T05:21:01.436Z,36.53
2024-03-26T05:22:04.710Z,36.51
2024-03-26T05:23:07.909Z,36.46
2024-03-26T05:24:11.163Z,36.38
2024-03-26T05:25:14.342Z,36.49
2024-03-26T05:26:17.630Z,36.51
2024-03-26T05:27:20.887Z,36.51
2024-03-26T05:28:24.101Z,36.54
2024-03-26T05:29:27.319Z,36.49
2024-03-26T05:30:30.541Z,36.48
2024-03-26T05:31:39.807Z,36.5
2024-03-26T05:32:42.940Z,36.43
2024-03-26T05:33:46.128Z,36.41
2024-03-26T05:34:49.306Z,36.45
2024-03-26T05:35:52.612Z,36.43
2024-03-26T05:36:55.847Z,36.34
2024-03-26T05:37:59.103Z,36.46
2024-03-26T05:39:02.336Z,36.47
2024-03-26T05:40:05.604Z,36.44
2024-03-26T05:41:10.761Z,36.41
2024-03-26T05:42:13.884Z,36.47
2024-03-26T05:43:17.162Z,36.51
2024-03-26T05:44:20.358Z,36.46
2024-03-26T05:45:23.528Z,36.53
2024-03-26T05:46:26.769Z,36.49
2024-03-26T05:47:30.037Z,36.47
2024-03-26T05:48:33.325Z,36.42
2024-03-26T05:49:36.559Z,36.51
2024-03-26T05:50:41.752Z,36.43
2024-03-26T05:51:44.932Z,36.48
2024-03-26T05:52:48.187Z,36.45
2024-03-26T05:53:51.304Z,36.51
2024-03-26T05:54:54.507Z,36.51
2024-03-26T05:55:57.755Z,36.44
2024-03-26T05:57:01.070Z,36.4
2024-03-26T05:58:04.255Z,36.45
2024-03-26T05:59:07.490Z,36.46
2024-03-26T06:00:10.676Z,36.47
2024-03-26T06:01:13.762Z,36.44
2024-03-26T06:02:17.027Z,36.47
2024-03-26T06:03:20.290Z,36.46
2024-03-26T06:04:23.538Z,36.44
2024-03-26T06:05:26.729Z,36.36
2024-03-26T06:06:30.029Z,36.47
2024-03-26T06:07:33.255Z,36.43
2024-03-26T06:08:36.474Z,36.44
2024-03-26T06:09:39.706Z,36.32
2024-03-26T06:10:43.049Z,36.4
2024-03-26T06:11:46.287Z,36.5
2024-03-26T06:12:51.513Z,36.46
2024-03-26T06:13:54.669Z,36.45
2024-03-26T06:14:57.899Z,36.43
2024-03-26T06:16:01.123Z,36.45
2024-03-26T06:17:04.323Z,36.46
2024-03-26T06:18:09.517Z,36.4
2024-03-26T06:19:12.599Z,36.42
2024-03-26T06:20:15.809Z,36.43
2024-03-26T06:21:19.008Z,36.4
2024-03-26T06:22:24.246Z,36.44
2024-03-26T06:23:27.468Z,36.44
2024-03-26T06:24:30.741Z,36.33
2024-03-26T06:25:33.897Z,36.37
2024-03-26T06:26:37.101Z,36.43
2024-03-26T06:27:42.342Z,36.37
2024-03-26T06:28:45.542Z,36.36
2024-03-26T06:29:48.817Z,36.36
2024-03-26T06:30:51.951Z,36.31
2024-03-26T06:31:55.162Z,36.44
2024-03-26T06:32:58.391Z,36.4
2024-03-26T06:34:03.668Z,36.38
2024-03-26T06:35:06.882Z,36.27
2024-03-26T06:36:10.072Z,36.35
2024-03-26T06:37:13.283Z,36.44
2024-03-26T06:38:16.510Z,36.4
2024-03-26T06:39:19.744Z,36.35
2024-03-26T06:40:23.043Z,36.44
2024-03-26T06:41:26.295Z,36.43
2024-03-26T06:42:29.537Z,36.31
2024-03-26T06:43:32.777Z,36.44
2024-03-26T06:44:37.077Z,36.29
2024-03-26T06:45:40.380Z,36.42
2024-03-26T06:46:43.584Z,36.37
2024-03-26T06:47:46.754Z,36.41
2024-03-26T06:48:49.994Z,36.45
2024-03-26T06:49:53.137Z,36.44
2024-03-26T06:50:56.409Z,36.38
2024-03-26T06:51:59.703Z,36.33
2024-03-26T06:53:02.953Z,36.36
2024-03-26T06:54:06.216Z,36.28
2024-03-26T06:55:09.423Z,36.35
2024-03-26T06:56:12.715Z,36.45
2024-03-26T06:57:17.946Z,36.44
2024-03-26T06:58:21.128Z,36.42
2024-03-26T06:59:24.337Z,36.32
2024-03-26T07:00:27.628Z,36.42
2024-03-26T07:01:31.017Z,36.41
2024-03-26T07:02:34.222Z,36.36
2024-03-26T07:03:37.409Z,36.32
2024-03-26T07:04:40.589Z,36.41
2024-03-26T07:05:43.761Z,36.43
2024-03-26T07:06:46.979Z,36.34
2024-03-26T07:07:50.231Z,36.32
2024-03-26T07:08:53.525Z,36.44
2024-03-26T07:09:56.790Z,36.44
2024-03-26T07:11:00.033Z,36.42
2024-03-26T07:12:03.323Z,36.35
2024-03-26T07:13:06.552Z,36.47
2024-03-26T07:14:09.702Z,36.42
2024-03-26T07:15:12.935Z,36.41
2024-03-26T07:16:16.214Z,36.42
2024-03-26T07:17:19.484Z,36.44
2024-03-26T07:18:22.750Z,36.44
2024-03-26T07:19:25.924Z,36.44
2024-03-26T07:20:29.172Z,36.43
2024-03-26T07:21:32.427Z,36.25
2024-03-26T07:22:35.686Z,36.45
2024-03-26T07:23:38.952Z,36.42
2024-03-26T07:24:42.146Z,36.38
2024-03-26T07:25:45.375Z,36.41
2024-03-26T07:26:48.569Z,36.37
2024-03-26T07:27:51.713Z,36.44
2024-03-26T07:28:54.844Z,36.41
2024-03-26T07:29:58.046Z,36.46
2024-03-26T07:31:01.230Z,36.37
2024-03-26T07:32:04.512Z,36.43
2024-03-26T07:33:07.791Z,36.44
2024-03-26T07:34:12.933Z,36.43
2024-03-26T07:35:16.120Z,36.43
2024-03-26T07:36:19.429Z,36.36
2024-03-26T07:37:24.627Z,36.39
2024-03-26T07:38:27.800Z,36.36
2024-03-26T07:39:31.128Z,36.35
2024-03-26T07:40:34.457Z,36.34
2024-03-26T07:41:37.744Z,36.36
2024-03-26T07:42:41.076Z,36.36
2024-03-26T07:43:44.315Z,36.36
2024-03-26T07:44:47.576Z,36.39
2024-03-26T07:45:50.788Z,36.38
2024-03-26T07:46:53.972Z,36.39
2024-03-26T07:47:57.363Z,36.36
2024-03-26T07:49:00.738Z,36.37
2024-03-26T07:50:04.183Z,36.33
2024-03-26T07:51:07.501Z,36.37
2024-03-26T07:52:10.835Z,36.36
2024-03-26T07:53:14.153Z,36.38
2024-03-26T07:54:17.722Z,36.3
2024-03-26T07:55:20.948Z,36.4
2024-03-26T07:56:24.202Z,36.37
2024-03-26T07:57:27.442Z,36.26
2024-03-26T07:58:30.863Z,36.37
2024-03-26T07:59:34.284Z,36.38
2024-03-26T08:00:37.638Z,36.31
2024-03-26T08:01:41.167Z,36.37
2024-03-26T08:02:44.492Z,36.36
2024-03-26T08:03:47.721Z,36.4
2024-03-26T08:04:52.918Z,36.34
2024-03-26T08:05:56.198Z,36.38
2024-03-26T08:06:59.479Z,36.33
2024-03-26T08:08:02.733Z,36.38
2024-03-26T08:09:06.001Z,36.34
2024-03-26T08:10:09.152Z,36.37
2024-03-26T08:11:12.547Z,36.35
2024-03-26T08:12:15.806Z,36.38
2024-03-26T08:13:18.995Z,36.39
2024-03-26T08:14:24.186Z,36.38
2024-03-26T08:15:27.367Z,36.34
2024-03-26T08:16:30.741Z,36.33
2024-03-26T08:17:33.967Z,36.33
2024-03-26T08:18:37.286Z,36.34
2024-03-26T08:19:40.507Z,36.32
2024-03-26T08:20:43.738Z,36.28
2024-03-26T08:21:48.985Z,36.27
2024-03-26T08:22:52.129Z,36.27
2024-03-26T08:23:55.643Z,36.31
2024-03-26T08:24:59.015Z,36.28
2024-03-26T08:26:02.262Z,36.27
2024-03-26T08:27:05.571Z,36.26
2024-03-26T08:28:08.875Z,36.28
2024-03-26T08:29:12.174Z,36.28
2024-03-26T08:30:15.424Z,36.26
2024-03-26T08:31:18.675Z,36.25
2024-03-26T08:32:27.866Z,36.28
2024-03-26T08:33:33.022Z,36.21
2024-03-26T08:34:36.281Z,36.18
2024-03-26T08:35:41.648Z,36.2
2024-03-26T08:36:44.907Z,36.22
2024-03-26T08:37:48.164Z,36.19
2024-03-26T08:38:51.346Z,36.18
2024-03-26T08:39:56.027Z,36.2
2024-03-26T08:40:59.235Z,36.24
2024-03-26T08:42:02.463Z,36.21
2024-03-26T08:43:05.721Z,36.21
2024-03-26T08:44:08.879Z,36.19
2024-03-26T08:45:14.196Z,36.23
2024-03-26T08:46:17.534Z,36.1
2024-03-26T08:47:22.779Z,36.14
2024-03-26T08:48:26.006Z,36.15
2024-03-26T08:49:29.267Z,36.17
2024-03-26T08:50:32.510Z,36.19
2024-03-26T08:51:35.927Z,36.15
2024-03-26T08:52:39.171Z,36.19
2024-03-26T08:53:42.527Z,36.19
2024-03-26T08:54:45.769Z,36.23
2024-03-26T08:55:49.017Z,36.18
2024-03-26T08:56:54.180Z,36.25
2024-03-26T08:57:57.417Z,36.22
2024-03-26T08:59:00.683Z,36.23
2024-03-26T09:00:03.869Z,36.2
2024-03-26T09:01:07.085Z,36.23
2024-03-26T09:02:10.229Z,36.23
2024-03-26T09:03:14.856Z,36.14
2024-03-26T09:04:18.023Z,36.22
2024-03-26T09:05:21.246Z,36.2
2024-03-26T09:06:24.490Z,36.23
2024-03-26T09:07:27.753Z,36.23
2024-03-26T09:08:30.965Z,36.19
2024-03-26T09:09:35.716Z,36.19
2024-03-26T09:10:38.890Z,36.21
2024-03-26T09:11:42.142Z,36.12
2024-03-26T09:12:47.339Z,36.18
2024-03-26T09:13:50.440Z,36.19
2024-03-26T09:14:53.638Z,36.15
2024-03-26T09:15:56.946Z,36.19
2024-03-26T09:17:00.181Z,36.21
2024-03-26T09:18:03.430Z,36.15
2024-03-26T09:19:06.725Z,36.17
2024-03-26T09:20:11.898Z,36.12
2024-03-26T09:21:15.104Z,36.1
2024-03-26T09:22:18.213Z,36.14
2024-03-26T09:23:21.439Z,36.13
2024-03-26T09:24:36.390Z,36.12
2024-03-26T09:25:42.559Z,35.94
2024-03-26T09:26:45.807Z,35.94
2024-03-26T09:27:50.566Z,35.95
2024-03-26T09:28:53.694Z,36
2024-03-26T09:29:56.875Z,36.01
2024-03-26T09:31:00.179Z,36
2024-03-26T09:32:03.397Z,36
2024-03-26T09:33:06.675Z,36.01
2024-03-26T09:34:09.937Z,36.03
2024-03-26T09:35:13.170Z,36.05
2024-03-26T09:36:16.431Z,36.03
2024-03-26T09:37:19.701Z,35.99
2024-03-26T09:38:35.767Z,36.04
2024-03-26T09:39:40.876Z,35.88
2024-03-26T09:40:44.107Z,35.83
2024-03-26T09:41:47.368Z,35.89
2024-03-26T09:42:51.492Z,35.89
2024-03-26T09:43:54.608Z,35.93
2024-03-26T09:45:05.458Z,35.93
2024-03-26T09:46:09.455Z,35.86
2024-03-26T09:47:12.618Z,35.89
2024-03-26T09:48:15.732Z,35.91
2024-03-26T09:49:18.862Z,35.94
2024-03-26T09:50:22.092Z,35.91
2024-03-26T09:51:25.359Z,35.97
2024-03-26T09:52:28.524Z,35.92
2024-03-26T09:53:31.724Z,35.97
2024-03-26T09:54:34.986Z,35.98
2024-03-26T09:55:38.328Z,35.99
2024-03-26T09:56:41.596Z,35.99
2024-03-26T09:57:44.772Z,35.99
2024-03-26T09:58:49.012Z,35.99
2024-03-26T09:59:52.202Z,35.99
2024-03-26T10:00:55.384Z,36.01
2024-03-26T10:01:58.620Z,36.01
2024-03-26T10:03:01.912Z,35.96
2024-03-26T10:04:06.261Z,35.96
2024-03-26T10:05:09.437Z,35.9
2024-03-26T10:06:12.654Z,35.99
2024-03-26T10:07:15.874Z,35.93
2024-03-26T10:08:19.104Z,36
2024-03-26T10:09:22.375Z,35.96
2024-03-26T10:10:25.579Z,35.93
2024-03-26T10:11:28.786Z,36
2024-03-26T10:12:32.104Z,36.02
2024-03-26T10:13:35.435Z,35.94
2024-03-26T10:14:38.727Z,35.97
2024-03-26T10:15:41.974Z,35.98
2024-03-26T10:16:45.141Z,35.99
2024-03-26T10:17:48.377Z,35.85
2024-03-26T10:18:51.485Z,35.96
2024-03-26T10:19:54.711Z,35.98
2024-03-26T10:20:58.008Z,35.95
2024-03-26T10:22:02.704Z,35.95
2024-03-26T10:23:07.105Z,35.96
2024-03-26T10:24:11.833Z,35.88
2024-03-26T10:25:15.003Z,35.87
2024-03-26T10:26:18.170Z,35.89
2024-03-26T10:27:21.445Z,35.87
2024-03-26T10:28:24.646Z,35.94
2024-03-26T10:29:27.834Z,35.89
2024-03-26T10:30:31.076Z,35.92
2024-03-26T10:31:34.290Z,35.83
2024-03-26T10:32:37.583Z,35.86
2024-03-26T10:33:41.080Z,35.86
2024-03-26T10:34:44.287Z,35.88
2024-03-26T10:35:49.542Z,35.86
2024-03-26T10:36:52.591Z,35.82
2024-03-26T10:38:04.379Z,35.85
2024-03-26T10:39:08.728Z,35.8
2024-03-26T10:40:11.859Z,35.76
2024-03-26T10:41:17.050Z,35.79
2024-03-26T10:42:20.247Z,35.74
2024-03-26T10:43:23.491Z,35.71
2024-03-26T10:44:26.780Z,35.65
2024-03-26T10:45:43.981Z,35.77
2024-03-26T10:46:49.692Z,35.64
2024-03-26T10:47:54.840Z,35.64
2024-03-26T10:49:01.896Z,35.63
2024-03-26T10:50:05.074Z,35.64
2024-03-26T10:51:08.276Z,35.61
2024-03-26T10:52:13.480Z,35.65
2024-03-26T10:53:21.419Z,35.65
2024-03-26T10:54:25.743Z,35.66
2024-03-26T10:55:28.989Z,35.67
2024-03-26T10:56:32.237Z,35.66
2024-03-26T10:57:37.576Z,35.7
2024-03-26T10:58:40.775Z,35.69
2024-03-26T10:59:44.012Z,35.68
2024-03-26T11:00:47.282Z,35.72
2024-03-26T11:01:50.461Z,35.73
2024-03-26T11:02:53.672Z,35.74
2024-03-26T11:03:56.865Z,35.76
2024-03-26T11:05:00.160Z,35.76
2024-03-26T11:06:05.470Z,35.8
2024-03-26T11:07:08.625Z,35.72
2024-03-26T11:08:12.745Z,35.74
2024-03-26T11:09:17.081Z,35.71
2024-03-26T11:10:20.506Z,35.72
2024-03-26T11:11:23.708Z,35.77
2024-03-26T11:12:26.904Z,35.78
2024-03-26T11:13:30.159Z,35.78
2024-03-26T11:14:33.397Z,35.73
2024-03-26T11:15:36.567Z,35.74
2024-03-26T11:16:39.770Z,35.78
2024-03-26T11:17:43.031Z,35.76
2024-03-26T11:18:47.730Z,35.72
2024-03-26T11:19:52.341Z,35.7
2024-03-26T11:20:55.463Z,35.72
2024-03-26T11:21:58.646Z,35.69
2024-03-26T11:23:04.500Z,35.56
2024-03-26T11:24:07.718Z,35.69
2024-03-26T11:25:10.931Z,35.71
2024-03-26T11:26:14.122Z,35.66
2024-03-26T11:27:18.378Z,35.7
2024-03-26T11:28:21.771Z,35.71
2024-03-26T11:29:24.986Z,35.69
2024-03-26T11:30:28.340Z,35.65
2024-03-26T11:31:31.614Z,35.7
2024-03-26T11:32:36.839Z,35.65
2024-03-26T11:33:40.044Z,35.62
2024-03-26T11:34:43.323Z,35.62
2024-03-26T11:35:46.582Z,35.6
2024-03-26T11:36:50.841Z,35.59
2024-03-26T11:37:54.021Z,35.67
2024-03-26T11:38:57.268Z,35.66
2024-03-26T11:40:02.012Z,35.63
2024-03-26T11:41:08.171Z,35.64
2024-03-26T11:42:11.338Z,35.57
2024-03-26T11:43:14.514Z,35.53
2024-03-26T11:44:17.700Z,35.56
2024-03-26T11:45:20.900Z,35.63
2024-03-26T11:46:24.085Z,35.64
2024-03-26T11:47:27.383Z,35.66
2024-03-26T11:48:32.763Z,35.62
2024-03-26T11:49:35.894Z,35.63
2024-03-26T11:50:39.159Z,35.62
2024-03-26T11:51:44.530Z,35.66
2024-03-26T11:52:47.730Z,35.58
2024-03-26T11:53:50.843Z,35.6
2024-03-26T11:54:53.976Z,35.62
2024-03-26T11:55:57.268Z,35.59
2024-03-26T11:57:00.520Z,35.6
2024-03-26T11:58:03.813Z,35.63
2024-03-26T11:59:06.973Z,35.66
2024-03-26T12:00:10.099Z,35.62
2024-03-26T12:01:14.824Z,35.63
2024-03-26T12:02:18.068Z,35.56
2024-03-26T12:03:21.323Z,35.63
2024-03-26T12:04:24.601Z,35.63
2024-03-26T12:05:27.887Z,35.61
2024-03-26T12:06:31.143Z,35.62
2024-03-26T12:07:34.325Z,35.62
2024-03-26T12:08:37.626Z,35.63
2024-03-26T12:09:44.382Z,35.59
2024-03-26T12:10:47.556Z,35.64
2024-03-26T12:11:50.720Z,35.59
2024-03-26T12:12:53.838Z,35.62
2024-03-26T12:13:57.031Z,35.64
2024-03-26T12:15:00.291Z,35.62
2024-03-26T12:16:03.620Z,35.64
2024-03-26T12:17:08.818Z,35.6
2024-03-26T12:18:11.947Z,35.58
2024-03-26T12:19:15.239Z,35.59
2024-03-26T12:20:18.414Z,35.59
2024-03-26T12:21:21.578Z,35.64
2024-03-26T12:22:24.719Z,35.6
2024-03-26T12:23:27.918Z,35.61
2024-03-26T12:24:31.180Z,35.58
2024-03-26T12:25:35.955Z,35.64
2024-03-26T12:26:39.151Z,35.66
2024-03-26T12:27:46.702Z,35.6
2024-03-26T12:28:49.898Z,35.6
2024-03-26T12:29:53.107Z,35.58
2024-03-26T12:30:56.293Z,35.59
2024-03-26T12:32:05.516Z,35.53
2024-03-26T12:33:10.125Z,35.55
2024-03-26T12:34:13.305Z,35.52
2024-03-26T12:35:16.599Z,35.51
2024-03-26T12:36:21.280Z,35.55
2024-03-26T12:37:24.514Z,35.5
2024-03-26T12:38:27.774Z,35.56
2024-03-26T12:39:32.490Z,35.55
2024-03-26T12:40:35.701Z,35.58
2024-03-26T12:41:38.959Z,35.59
2024-03-26T12:42:44.187Z,35.59
2024-03-26T12:43:47.551Z,35.54
2024-03-26T12:44:52.678Z,35.61
2024-03-26T12:45:55.828Z,35.6
2024-03-26T12:46:58.999Z,35.6
2024-03-26T12:48:04.281Z,35.59
2024-03-26T12:49:07.476Z,35.59
2024-03-26T12:50:10.750Z,35.57
2024-03-26T12:51:15.964Z,35.6
2024-03-26T12:52:19.137Z,35.62
2024-03-26T12:53:22.478Z,35.58
2024-03-26T12:54:25.716Z,35.65
2024-03-26T12:55:28.871Z,35.51
2024-03-26T12:56:32.179Z,35.58
2024-03-26T12:57:35.360Z,35.56
2024-03-26T12:58:38.637Z,35.55
2024-03-26T12:59:43.858Z,35.63
2024-03-26T13:00:48.993Z,35.6
2024-03-26T13:01:54.634Z,35.57
2024-03-26T13:02:57.835Z,35.53
2024-03-26T13:04:01.191Z,35.52
2024-03-26T13:05:04.388Z,35.6
2024-03-26T13:06:07.673Z,35.6
2024-03-26T13:07:10.987Z,35.6
2024-03-26T13:08:14.283Z,35.62
2024-03-26T13:09:17.528Z,35.61
2024-03-26T13:10:22.775Z,35.59
2024-03-26T13:11:26.013Z,35.61
2024-03-26T13:12:29.314Z,35.63
2024-03-26T13:13:32.585Z,35.66
2024-03-26T13:14:37.915Z,35.65
2024-03-26T13:15:41.047Z,35.62
2024-03-26T13:16:44.292Z,35.64
2024-03-26T13:17:47.614Z,35.61
2024-03-26T13:18:50.839Z,35.63
2024-03-26T13:19:58.448Z,35.62
2024-03-26T13:21:04.590Z,35.56
2024-03-26T13:22:07.782Z,35.55
2024-03-26T13:23:10.990Z,35.6
2024-03-26T13:24:14.245Z,35.59
2024-03-26T13:25:19.448Z,35.62
2024-03-26T13:26:22.603Z,35.61
2024-03-26T13:27:27.993Z,35.6
2024-03-26T13:28:31.207Z,35.64
2024-03-26T13:29:34.397Z,35.61
2024-03-26T13:30:45.323Z,35.66
2024-03-26T13:31:48.774Z,35.56
2024-03-26T13:32:51.845Z,35.54
2024-03-26T13:33:54.958Z,35.51
2024-03-26T13:34:58.163Z,35.57
2024-03-26T13:36:05.768Z,35.6
2024-03-26T13:37:09.008Z,35.49
2024-03-26T13:38:12.193Z,35.52
2024-03-26T13:39:21.078Z,35.58
2024-03-26T13:40:40.597Z,35.55
2024-03-26T13:41:42.083Z,35.34
2024-03-26T13:42:45.266Z,35.35